createdAt,value
2023-03-18T00:01:22.573Z,10.25
2023-03-18T00:03:50.505Z,10.27
2023-03-18T00:06:22.036Z,10.23
2023-03-18T00:08:50.735Z,10.24
2023-03-18T00:11:21.619Z,10.23
2023-03-18T00:13:49.938Z,10.23
2023-03-18T00:16:17.961Z,10.25
2023-03-18T00:18:45.752Z,10.25
2023-03-18T00:21:13.559Z,10.26
2023-03-18T00:23:42.155Z,10.20
2023-03-18T00:26:10.219Z,10.14
2023-03-18T00:28:38.866Z,10.08
2023-03-18T00:31:11.305Z,10.05
2023-03-18T00:33:43.729Z,10.07
2023-03-18T00:36:14.126Z,10.05
2023-03-18T00:38:45.967Z,9.99
2023-03-18T00:41:15.987Z,9.94
2023-03-18T00:43:52.611Z,9.95
2023-03-18T00:46:24.809Z,9.91
2023-03-18T00:48:56.124Z,9.87
2023-03-18T00:51:26.609Z,9.83
2023-03-18T00:53:58.838Z,9.90
2023-03-18T00:56:30.897Z,9.94
2023-03-18T00:59:00.212Z,9.90
2023-03-18T01:01:28.996Z,9.79
2023-03-18T01:03:57.858Z,9.73
2023-03-18T01:06:31.777Z,9.72
2023-03-18T01:09:01.512Z,9.74
2023-03-18T01:11:30.041Z,9.77
2023-03-18T01:13:59.451Z,9.83
2023-03-18T01:16:27.762Z,9.85
2023-03-18T01:18:55.602Z,9.83
2023-03-18T01:21:23.691Z,9.77
2023-03-18T01:23:57.089Z,9.74
2023-03-18T01:26:26.293Z,9.71
2023-03-18T01:28:55.604Z,9.70
2023-03-18T01:31:25.504Z,9.71
2023-03-18T01:33:54.662Z,9.68
2023-03-18T01:36:22.768Z,9.63
2023-03-18T01:39:03.055Z,9.59
2023-03-18T01:41:31.652Z,9.56
2023-03-18T01:43:59.799Z,9.61
2023-03-18T01:46:34.104Z,9.64
2023-03-18T01:49:13.827Z,9.61
2023-03-18T01:52:25.262Z,9.60
2023-03-18T01:55:05.473Z,9.65
2023-03-18T01:57:35.148Z,9.66
2023-03-18T02:00:06.373Z,9.68
2023-03-18T02:02:45.407Z,9.71
2023-03-18T02:07:52.513Z,9.69
2023-03-18T02:10:28.524Z,9.74
2023-03-18T02:13:09.786Z,9.71
2023-03-18T02:15:49.050Z,9.73
2023-03-18T02:18:29.919Z,9.78
2023-03-18T02:21:26.195Z,9.81
2023-03-18T02:24:10.441Z,9.82
2023-03-18T02:27:05.469Z,9.84
2023-03-18T02:29:42.343Z,9.81
2023-03-18T02:32:15.686Z,9.86
2023-03-18T02:34:45.660Z,9.87
2023-03-18T02:37:13.672Z,9.85
2023-03-18T02:39:42.369Z,9.85
2023-03-18T02:42:14.675Z,9.90
2023-03-18T02:44:48.104Z,9.87
2023-03-18T02:47:31.772Z,9.89
2023-03-18T02:50:00.873Z,9.89
2023-03-18T02:52:28.794Z,9.91
2023-03-18T02:54:59.240Z,9.95
2023-03-18T02:57:27.551Z,10.04
2023-03-18T02:59:56.066Z,10.07
2023-03-18T03:02:24.075Z,10.02
2023-03-18T03:04:52.041Z,10.04
2023-03-18T03:07:20.011Z,10.04
2023-03-18T03:09:51.601Z,10.06
2023-03-18T03:12:20.574Z,10.09
2023-03-18T03:14:52.243Z,10.15
2023-03-18T03:17:20.469Z,10.15
2023-03-18T03:19:48.260Z,10.19
2023-03-18T03:22:17.455Z,10.17
2023-03-18T03:24:47.500Z,10.15
2023-03-18T03:27:15.640Z,10.16
2023-03-18T03:29:43.640Z,10.16
2023-03-18T03:32:13.212Z,10.20
2023-03-18T03:34:41.516Z,10.25
2023-03-18T03:37:12.683Z,10.30
2023-03-18T03:39:40.770Z,10.38
2023-03-18T03:42:08.723Z,10.46
2023-03-18T03:44:36.776Z,10.49
2023-03-18T03:47:06.555Z,10.44
2023-03-18T03:49:34.377Z,10.41
2023-03-18T03:52:02.976Z,10.42
2023-03-18T03:54:31.556Z,10.41
2023-03-18T03:57:00.892Z,10.43
2023-03-18T03:59:29.174Z,10.46
2023-03-18T04:02:14.437Z,10.37
2023-03-18T04:04:43.454Z,10.30
2023-03-18T04:07:17.121Z,10.27
2023-03-18T04:09:45.652Z,10.31
2023-03-18T04:12:14.239Z,10.31
2023-03-18T04:14:42.129Z,10.32
2023-03-18T04:17:10.065Z,10.32
2023-03-18T04:19:38.088Z,10.38
2023-03-18T04:22:06.745Z,10.38
2023-03-18T04:24:35.405Z,10.39
2023-03-18T04:27:03.919Z,10.37
2023-03-18T04:29:32.386Z,10.40
2023-03-18T04:32:00.286Z,10.40
2023-03-18T04:34:28.690Z,10.40
2023-03-18T04:36:56.707Z,10.43
2023-03-18T04:39:25.299Z,10.40
2023-03-18T04:41:54.701Z,10.40
2023-03-18T04:44:24.308Z,10.44
2023-03-18T04:46:54.039Z,10.50
2023-03-18T04:49:22.457Z,10.50
2023-03-18T04:51:50.503Z,10.47
2023-03-18T04:54:29.756Z,10.48
2023-03-18T04:56:59.927Z,10.51
2023-03-18T04:59:28.040Z,10.49
2023-03-18T05:01:56.506Z,10.42
2023-03-18T05:04:24.504Z,10.36
2023-03-18T05:06:53.939Z,10.39
2023-03-18T05:09:26.133Z,10.41
2023-03-18T05:11:54.347Z,10.40
2023-03-18T05:14:27.368Z,10.43
2023-03-18T05:16:55.419Z,10.43
2023-03-18T05:19:24.000Z,10.42
2023-03-18T05:21:58.635Z,10.34
2023-03-18T05:24:27.361Z,10.30
2023-03-18T05:26:55.489Z,10.20
2023-03-18T05:29:25.950Z,10.08
2023-03-18T05:32:16.715Z,9.98
2023-03-18T05:34:45.161Z,9.91
2023-03-18T05:37:15.935Z,9.86
2023-03-18T05:39:47.639Z,9.83
2023-03-18T05:42:18.128Z,9.87
2023-03-18T05:44:46.072Z,9.93
2023-03-18T05:47:14.467Z,9.97
2023-03-18T05:50:10.687Z,9.96
2023-03-18T05:52:39.639Z,9.98
2023-03-18T05:55:15.018Z,10.00
2023-03-18T05:57:45.387Z,10.06
2023-03-18T06:00:15.503Z,10.10
2023-03-18T06:02:43.679Z,10.13
2023-03-18T06:05:12.217Z,10.17
2023-03-18T06:07:40.777Z,10.17
2023-03-18T06:10:10.531Z,10.21
2023-03-18T06:12:39.811Z,10.22
2023-03-18T06:15:11.008Z,10.27
2023-03-18T06:17:39.551Z,10.31
2023-03-18T06:20:12.043Z,10.36
2023-03-18T06:22:40.393Z,10.44
2023-03-18T06:25:08.760Z,10.48
2023-03-18T06:27:39.176Z,10.46
2023-03-18T06:30:07.740Z,10.47
2023-03-18T06:32:36.869Z,10.48
2023-03-18T06:35:05.513Z,10.55
2023-03-18T06:37:34.018Z,10.52
2023-03-18T06:40:02.166Z,10.47
2023-03-18T06:42:32.059Z,10.49
2023-03-18T06:45:13.525Z,10.54
2023-03-18T06:47:52.103Z,10.54
2023-03-18T06:50:22.459Z,10.57
2023-03-18T06:52:50.951Z,10.56
2023-03-18T06:55:25.086Z,10.59
2023-03-18T06:57:52.940Z,10.64
2023-03-18T07:00:24.857Z,10.69
2023-03-18T07:02:53.102Z,10.71
2023-03-18T07:05:24.589Z,10.76
2023-03-18T07:07:52.393Z,10.81
2023-03-18T07:10:28.044Z,10.90
2023-03-18T07:13:00.707Z,10.93
2023-03-18T07:15:28.836Z,10.93
2023-03-18T07:18:00.648Z,10.88
2023-03-18T07:20:29.787Z,10.91
2023-03-18T07:22:57.655Z,10.96
2023-03-18T07:25:25.572Z,11.03
2023-03-18T07:27:53.375Z,11.05
2023-03-18T07:30:21.766Z,11.19
2023-03-18T07:32:49.978Z,11.20
2023-03-18T07:35:18.221Z,11.20
2023-03-18T07:37:46.260Z,11.20
2023-03-18T07:40:14.804Z,11.22
2023-03-18T07:42:42.949Z,11.22
2023-03-18T07:45:10.969Z,11.25
2023-03-18T07:47:38.978Z,11.28
2023-03-18T07:50:07.728Z,11.32
2023-03-18T07:52:35.791Z,11.30
2023-03-18T07:55:04.757Z,11.27
2023-03-18T07:57:32.716Z,11.30
2023-03-18T08:00:00.772Z,11.39
2023-03-18T08:02:28.776Z,11.44
2023-03-18T08:04:57.595Z,11.41
2023-03-18T08:07:25.543Z,11.44
2023-03-18T08:09:53.360Z,11.41
2023-03-18T08:12:22.033Z,11.44
2023-03-18T08:14:49.802Z,11.43
2023-03-18T08:17:18.318Z,11.40
2023-03-18T08:19:47.106Z,11.43
2023-03-18T08:22:15.916Z,11.49
2023-03-18T08:24:45.639Z,11.50
2023-03-18T08:27:13.776Z,11.48
2023-03-18T08:29:41.706Z,11.46
2023-03-18T08:32:10.516Z,11.44
2023-03-18T08:34:38.964Z,11.48
2023-03-18T08:37:08.313Z,11.40
2023-03-18T08:39:36.294Z,11.28
2023-03-18T08:42:04.973Z,11.18
2023-03-18T08:44:33.216Z,11.12
2023-03-18T08:47:01.346Z,11.10
2023-03-18T08:49:29.579Z,11.10
2023-03-18T08:51:57.446Z,11.12
2023-03-18T08:54:25.513Z,11.08
2023-03-18T08:56:55.255Z,11.07
2023-03-18T08:59:23.335Z,11.04
2023-03-18T09:01:51.577Z,11.13
2023-03-18T09:04:20.251Z,11.22
2023-03-18T09:06:51.478Z,11.28
2023-03-18T09:09:19.529Z,11.26
2023-03-18T09:11:48.635Z,11.27
2023-03-18T09:14:16.436Z,11.26
2023-03-18T09:16:46.090Z,11.20
2023-03-18T09:19:13.939Z,11.20
2023-03-18T09:21:41.928Z,11.25
2023-03-18T09:24:10.525Z,11.30
2023-03-18T09:26:39.387Z,11.40
2023-03-18T09:29:07.556Z,11.48
2023-03-18T09:31:35.470Z,11.56
2023-03-18T09:34:04.205Z,11.65
2023-03-18T09:36:32.563Z,11.76
2023-03-18T09:39:01.115Z,11.81
2023-03-18T09:42:07.817Z,11.86
2023-03-18T09:44:37.661Z,11.91
2023-03-18T09:47:34.159Z,11.96
2023-03-18T09:50:35.985Z,12.04
2023-03-18T09:53:31.731Z,12.21
2023-03-18T09:56:02.874Z,12.35
2023-03-18T09:58:51.815Z,12.39
2023-03-18T10:01:23.731Z,12.45
2023-03-18T10:04:11.320Z,12.49
2023-03-18T10:06:43.175Z,12.51
2023-03-18T10:09:28.977Z,12.55
2023-03-18T10:12:31.138Z,12.56
2023-03-18T10:15:13.280Z,12.64
2023-03-18T10:18:11.260Z,12.68
2023-03-18T10:21:29.923Z,12.73
2023-03-18T10:24:27.418Z,12.88
2023-03-18T10:27:28.910Z,13.03
2023-03-18T10:30:27.622Z,13.22
2023-03-18T10:33:07.396Z,13.30
2023-03-18T10:36:03.464Z,13.40
2023-03-18T10:38:38.425Z,13.60
2023-03-18T10:41:28.912Z,13.75
2023-03-18T10:43:58.418Z,14.03
2023-03-18T10:46:27.103Z,14.16
2023-03-18T10:49:06.321Z,14.29
2023-03-18T10:51:50.202Z,14.49
2023-03-18T10:54:35.582Z,14.62
2023-03-18T10:57:03.641Z,14.68
2023-03-18T10:59:31.473Z,14.73
2023-03-18T11:02:22.805Z,14.82
2023-03-18T11:05:00.125Z,14.92
2023-03-18T11:07:28.925Z,15.03
2023-03-18T11:10:18.769Z,14.95
2023-03-18T11:12:46.631Z,14.87
2023-03-18T11:15:20.628Z,14.76
2023-03-18T11:17:51.781Z,14.73
2023-03-18T11:20:45.788Z,14.68
2023-03-18T11:23:56.227Z,14.66
2023-03-18T11:26:30.170Z,14.67
2023-03-18T11:29:10.426Z,14.66
2023-03-18T11:32:00.785Z,14.65
2023-03-18T11:34:32.946Z,14.51
2023-03-18T11:37:05.020Z,14.26
2023-03-18T11:39:37.881Z,14.01
2023-03-18T11:42:22.562Z,13.83
2023-03-18T11:44:55.310Z,13.68
2023-03-18T11:47:30.204Z,13.51
2023-03-18T11:50:00.367Z,13.41
2023-03-18T11:52:54.474Z,13.33
2023-03-18T11:55:42.715Z,13.19
2023-03-18T11:58:42.363Z,13.02
2023-03-18T12:01:49.638Z,12.80
2023-03-18T12:04:28.368Z,12.58
2023-03-18T12:07:40.254Z,12.44
2023-03-18T12:10:24.743Z,12.32
2023-03-18T12:13:23.092Z,12.22
2023-03-18T12:16:13.231Z,12.11
2023-03-18T12:18:49.320Z,12.05
2023-03-18T12:21:36.852Z,11.99
2023-03-18T12:24:52.472Z,12.00
2023-03-18T12:27:34.777Z,12.07
2023-03-18T12:30:39.643Z,12.07
2023-03-18T12:33:19.294Z,12.15
2023-03-18T12:36:19.094Z,12.24
2023-03-18T12:39:29.893Z,12.28
2023-03-18T12:42:15.077Z,12.29
2023-03-18T12:45:02.191Z,12.32
2023-03-18T12:47:52.675Z,12.35
2023-03-18T12:50:36.620Z,12.29
2023-03-18T12:53:33.476Z,12.26
2023-03-18T12:56:14.037Z,12.21
2023-03-18T12:58:48.751Z,12.16
2023-03-18T13:01:23.533Z,12.14
2023-03-18T13:03:56.306Z,12.08
2023-03-18T13:06:46.102Z,11.97
2023-03-18T13:09:46.640Z,11.94
2023-03-18T13:12:24.056Z,11.89
2023-03-18T13:15:12.472Z,11.87
2023-03-18T13:17:48.246Z,11.93
2023-03-18T13:20:47.275Z,11.99
2023-03-18T13:23:30.342Z,12.14
2023-03-18T13:26:31.572Z,12.35
2023-03-18T13:29:25.930Z,12.61
2023-03-18T13:32:38.983Z,12.86
2023-03-18T13:35:28.022Z,13.10
2023-03-18T13:38:23.303Z,13.21
2023-03-18T13:41:10.889Z,13.24
2023-03-18T13:43:43.390Z,13.18
2023-03-18T13:46:28.904Z,13.18
2023-03-18T13:49:01.184Z,13.27
2023-03-18T13:51:29.516Z,13.31
2023-03-18T13:54:07.255Z,13.21
2023-03-18T13:56:42.519Z,13.14
2023-03-18T13:59:35.205Z,13.09
2023-03-18T14:02:42.544Z,13.02
2023-03-18T14:05:32.364Z,12.98
2023-03-18T14:08:06.076Z,12.94
2023-03-18T14:10:34.100Z,12.88
2023-03-18T14:13:28.321Z,12.81
2023-03-18T14:15:58.919Z,12.83
2023-03-18T14:18:28.573Z,12.90
2023-03-18T14:21:01.895Z,13.08
2023-03-18T14:23:44.345Z,13.26
2023-03-18T14:26:25.129Z,13.54
2023-03-18T14:29:05.148Z,13.75
2023-03-18T14:31:39.002Z,13.89
2023-03-18T14:34:21.837Z,13.94
2023-03-18T14:36:52.599Z,13.96
2023-03-18T14:39:42.392Z,13.97
2023-03-18T14:42:46.401Z,13.93
2023-03-18T14:45:33.312Z,13.88
2023-03-18T14:48:24.645Z,13.91
2023-03-18T14:50:57.181Z,13.94
2023-03-18T14:53:34.587Z,13.96
2023-03-18T14:56:04.709Z,13.93
2023-03-18T14:58:34.557Z,13.92
2023-03-18T15:01:11.510Z,13.84
2023-03-18T15:03:44.811Z,13.78
2023-03-18T15:06:23.215Z,13.78
2023-03-18T15:09:09.726Z,13.77
2023-03-18T15:11:40.277Z,13.68
2023-03-18T15:14:30.387Z,13.63
2023-03-18T15:17:12.101Z,13.61
2023-03-18T15:19:39.890Z,13.55
2023-03-18T15:22:09.479Z,13.47
2023-03-18T15:24:37.700Z,13.44
2023-03-18T15:27:14.608Z,13.42
2023-03-18T15:29:57.339Z,13.39
2023-03-18T15:32:26.623Z,13.40
2023-03-18T15:35:22.259Z,13.38
2023-03-18T15:38:28.053Z,13.38
2023-03-18T15:41:10.461Z,13.36
2023-03-18T15:43:51.557Z,13.31
2023-03-18T15:46:27.420Z,13.31
2023-03-18T15:48:57.860Z,13.31
2023-03-18T15:51:40.477Z,13.40
2023-03-18T15:54:28.380Z,13.47
2023-03-18T15:56:59.321Z,13.45
2023-03-18T15:59:32.539Z,13.53
2023-03-18T16:02:01.539Z,13.66
2023-03-18T16:04:32.799Z,13.73
2023-03-18T16:07:00.525Z,13.71
2023-03-18T16:09:28.450Z,13.71
2023-03-18T16:12:03.466Z,13.79
2023-03-18T16:14:44.583Z,13.92
2023-03-18T16:17:14.158Z,14.03
2023-03-18T16:19:43.748Z,14.13
2023-03-18T16:22:15.642Z,14.18
2023-03-18T16:24:44.198Z,14.15
2023-03-18T16:27:39.446Z,14.21
2023-03-18T16:30:17.970Z,14.24
2023-03-18T16:32:47.067Z,14.29
2023-03-18T16:35:30.694Z,14.37
2023-03-18T16:38:01.024Z,14.48
2023-03-18T16:40:31.688Z,14.58
2023-03-18T16:42:59.488Z,14.56
2023-03-18T16:45:31.465Z,14.59
2023-03-18T16:48:04.911Z,14.60
2023-03-18T16:50:41.752Z,14.55
2023-03-18T16:53:29.715Z,14.48
2023-03-18T16:56:04.275Z,14.41
2023-03-18T16:58:35.342Z,14.38
2023-03-18T17:01:08.488Z,14.31
2023-03-18T17:03:37.091Z,14.23
2023-03-18T17:06:06.812Z,14.18
2023-03-18T17:08:36.525Z,14.10
2023-03-18T17:11:05.065Z,14.02
2023-03-18T17:13:37.929Z,13.89
2023-03-18T17:16:06.156Z,13.71
2023-03-18T17:18:34.027Z,13.64
2023-03-18T17:21:03.568Z,13.55
2023-03-18T17:23:32.041Z,13.41
2023-03-18T17:26:02.730Z,13.31
2023-03-18T17:28:37.429Z,13.23
2023-03-18T17:31:06.704Z,13.14
2023-03-18T17:33:36.029Z,12.99
2023-03-18T17:36:05.875Z,12.85
2023-03-18T17:38:36.663Z,12.71
2023-03-18T17:41:15.162Z,12.58
2023-03-18T17:43:43.196Z,12.47
2023-03-18T17:46:11.194Z,12.41
2023-03-18T17:48:40.983Z,12.23
2023-03-18T17:51:17.092Z,12.04
2023-03-18T17:53:52.126Z,11.93
2023-03-18T17:56:20.306Z,11.79
2023-03-18T17:58:51.397Z,11.68
2023-03-18T18:01:27.199Z,11.61
2023-03-18T18:03:58.309Z,11.56
2023-03-18T18:06:29.458Z,11.48
2023-03-18T18:09:00.242Z,11.45
2023-03-18T18:11:32.747Z,11.41
2023-03-18T18:14:24.909Z,11.40
2023-03-18T18:16:56.122Z,11.37
2023-03-18T18:19:24.242Z,11.28
2023-03-18T18:21:53.140Z,11.19
2023-03-18T18:24:28.914Z,11.09
2023-03-18T18:26:57.699Z,11.02
2023-03-18T18:29:33.811Z,10.99
2023-03-18T18:32:02.839Z,10.99
2023-03-18T18:34:30.989Z,11.02
2023-03-18T18:36:58.908Z,11.03
2023-03-18T18:39:26.735Z,11.05
2023-03-18T18:41:54.630Z,11.08
2023-03-18T18:44:23.068Z,11.03
2023-03-18T18:46:53.873Z,10.96
2023-03-18T18:49:24.140Z,10.90
2023-03-18T18:51:55.251Z,10.84
2023-03-18T18:54:24.545Z,10.77
2023-03-18T18:56:53.053Z,10.70
2023-03-18T18:59:26.991Z,10.62
2023-03-18T19:01:56.346Z,10.58
2023-03-18T19:04:24.821Z,10.50
2023-03-18T19:06:53.749Z,10.44
2023-03-18T19:09:26.569Z,10.36
2023-03-18T19:11:56.375Z,10.36
2023-03-18T19:14:29.408Z,10.32
2023-03-18T19:16:58.957Z,10.24
2023-03-18T19:19:34.529Z,10.18
2023-03-18T19:22:03.652Z,10.13
2023-03-18T19:24:39.196Z,10.12
2023-03-18T19:27:24.490Z,10.08
2023-03-18T19:30:05.477Z,10.07
2023-03-18T19:32:33.417Z,10.06
2023-03-18T19:35:01.814Z,10.02
2023-03-18T19:37:32.723Z,10.00
2023-03-18T19:40:19.556Z,9.98
2023-03-18T19:42:47.325Z,9.99
2023-03-18T19:45:15.300Z,9.99
2023-03-18T19:47:45.258Z,10.01
2023-03-18T19:50:19.455Z,10.00
2023-03-18T19:52:47.626Z,9.96
2023-03-18T19:55:17.273Z,9.92
2023-03-18T19:57:48.708Z,9.90
2023-03-18T20:00:21.936Z,9.90
2023-03-18T20:02:51.045Z,9.91
2023-03-18T20:05:22.821Z,9.89
2023-03-18T20:07:50.945Z,9.85
2023-03-18T20:10:21.053Z,9.84
2023-03-18T20:12:50.949Z,9.85
2023-03-18T20:15:25.146Z,9.82
2023-03-18T20:17:54.312Z,9.83
2023-03-18T20:20:30.573Z,9.84
2023-03-18T20:23:12.579Z,9.83
2023-03-18T20:25:43.653Z,9.80
2023-03-18T20:28:17.346Z,9.78
2023-03-18T20:30:50.833Z,9.77
2023-03-18T20:33:22.961Z,9.78
2023-03-18T20:35:53.679Z,9.77
2023-03-18T20:38:38.727Z,9.75
2023-03-18T20:41:07.440Z,9.71
2023-03-18T20:43:35.433Z,9.72
2023-03-18T20:46:03.536Z,9.73
2023-03-18T20:48:31.334Z,9.76
2023-03-18T20:50:59.171Z,9.78
2023-03-18T20:53:28.921Z,9.80
2023-03-18T20:55:56.884Z,9.80
2023-03-18T20:58:28.067Z,9.79
2023-03-18T21:00:56.091Z,9.77
2023-03-18T21:03:28.281Z,9.75
2023-03-18T21:05:59.039Z,9.76
2023-03-18T21:08:28.116Z,9.76
2023-03-18T21:10:59.574Z,9.74
2023-03-18T21:13:32.780Z,9.73
2023-03-18T21:16:03.755Z,9.75
2023-03-18T21:18:31.820Z,9.70
2023-03-18T21:21:01.196Z,9.64
2023-03-18T21:23:34.370Z,9.60
2023-03-18T21:26:02.314Z,9.57
2023-03-18T21:28:30.621Z,9.53
2023-03-18T21:30:58.807Z,9.52
2023-03-18T21:33:34.611Z,9.52
2023-03-18T21:36:03.023Z,9.52
2023-03-18T21:38:32.474Z,9.51
2023-03-18T21:41:01.984Z,9.51
2023-03-18T21:43:37.694Z,9.53
2023-03-18T21:46:12.532Z,9.52
2023-03-18T21:48:40.478Z,9.49
2023-03-18T21:51:37.181Z,9.47
2023-03-18T21:54:19.930Z,9.41
2023-03-18T21:56:47.847Z,9.36
2023-03-18T21:59:15.971Z,9.33
2023-03-18T22:01:43.982Z,9.28
2023-03-18T22:04:12.141Z,9.25
2023-03-18T22:06:40.017Z,9.23
2023-03-18T22:09:08.753Z,9.21
2023-03-18T22:11:36.806Z,9.19
2023-03-18T22:14:04.617Z,9.20
2023-03-18T22:16:33.018Z,9.25
2023-03-18T22:19:00.871Z,9.28
2023-03-18T22:21:28.945Z,9.30
2023-03-18T22:23:58.137Z,9.36
2023-03-18T22:26:26.188Z,9.40
2023-03-18T22:28:53.988Z,9.44
2023-03-18T22:31:26.934Z,9.46
2023-03-18T22:33:55.384Z,9.51
2023-03-18T22:36:25.408Z,9.53
2023-03-18T22:38:53.278Z,9.54
2023-03-18T22:41:30.183Z,9.54
2023-03-18T22:44:00.074Z,9.57
2023-03-18T22:46:32.019Z,9.60
2023-03-18T22:49:06.174Z,9.59
2023-03-18T22:51:39.187Z,9.57
2023-03-18T22:54:16.338Z,9.58
2023-03-18T22:56:44.222Z,9.59
2023-03-18T22:59:12.793Z,9.57
2023-03-18T23:01:40.627Z,9.58
2023-03-18T23:04:12.292Z,9.59
2023-03-18T23:06:41.535Z,9.58
2023-03-18T23:09:09.430Z,9.56
2023-03-18T23:11:37.383Z,9.55
2023-03-18T23:14:07.149Z,9.57
2023-03-18T23:16:35.215Z,9.59
2023-03-18T23:19:03.321Z,9.56
2023-03-18T23:21:31.186Z,9.55
2023-03-18T23:23:59.014Z,9.55
2023-03-18T23:26:26.968Z,9.55
2023-03-18T23:28:54.787Z,9.52
2023-03-18T23:31:22.767Z,9.49
2023-03-18T23:33:50.617Z,9.51
2023-03-18T23:36:18.486Z,9.51
2023-03-18T23:38:46.317Z,9.52
2023-03-18T23:41:14.197Z,9.54
2023-03-18T23:43:42.068Z,9.55
2023-03-18T23:46:10.034Z,9.54
2023-03-18T23:48:37.944Z,9.54
2023-03-18T23:51:06.564Z,9.51
2023-03-18T23:53:34.462Z,9.51
2023-03-18T23:56:02.590Z,9.53
2023-03-18T23:58:30.469Z,9.56
